sensor_id;sensor_type;location;lat;lon;timestamp;P1;durP1;ratioP1;P2;durP2;ratioP2
72951;SDS011;61102;51.956;5.878;2023-02-13T00:01:35;13.05;;;5.28;;
72951;SDS011;61102;51.956;5.878;2023-02-13T00:04:02;14.98;;;5.50;;
72951;SDS011;61102;51.956;5.878;2023-02-13T00:06:29;12.88;;;5.15;;
72951;SDS011;61102;51.956;5.878;2023-02-13T00:08:55;13.85;;;4.97;;
72951;SDS011;61102;51.956;5.878;2023-02-13T00:11:22;12.50;;;4.40;;
72951;SDS011;61102;51.956;5.878;2023-02-13T00:13:48;12.60;;;5.03;;
72951;SDS011;61102;51.956;5.878;2023-02-13T00:16:14;12.43;;;4.75;;
72951;SDS011;61102;51.956;5.878;2023-02-13T00:18:40;11.40;;;4.20;;
72951;SDS011;61102;51.956;5.878;2023-02-13T00:21:09;14.38;;;5.68;;
72951;SDS011;61102;51.956;5.878;2023-02-13T00:23:37;10.75;;;3.75;;
72951;SDS011;61102;51.956;5.878;2023-02-13T00:26:05;13.82;;;5.15;;
72951;SDS011;61102;51.956;5.878;2023-02-13T00:28:32;13.27;;;4.10;;
72951;SDS011;61102;51.956;5.878;2023-02-13T00:31:06;9.93;;;3.75;;
72951;SDS011;61102;51.956;5.878;2023-02-13T00:33:34;10.25;;;3.33;;
72951;SDS011;61102;51.956;5.878;2023-02-13T00:36:05;10.60;;;3.50;;
72951;SDS011;61102;51.956;5.878;2023-02-13T00:38:35;9.88;;;3.63;;
72951;SDS011;61102;51.956;5.878;2023-02-13T00:41:02;11.68;;;4.28;;
72951;SDS011;61102;51.956;5.878;2023-02-13T00:43:29;14.13;;;5.65;;
72951;SDS011;61102;51.956;5.878;2023-02-13T00:45:56;15.73;;;5.95;;
72951;SDS011;61102;51.956;5.878;2023-02-13T00:50:49;14.85;;;5.53;;
72951;SDS011;61102;51.956;5.878;2023-02-13T00:53:19;11.18;;;4.13;;
72951;SDS011;61102;51.956;5.878;2023-02-13T00:55:47;15.35;;;6.38;;
72951;SDS011;61102;51.956;5.878;2023-02-13T00:58:14;14.82;;;4.80;;
72951;SDS011;61102;51.956;5.878;2023-02-13T01:00:41;10.98;;;3.97;;
72951;SDS011;61102;51.956;5.878;2023-02-13T01:03:08;12.15;;;4.25;;
72951;SDS011;61102;51.956;5.878;2023-02-13T01:05:34;9.18;;;3.15;;
72951;SDS011;61102;51.956;5.878;2023-02-13T01:08:02;10.65;;;3.63;;
72951;SDS011;61102;51.956;5.878;2023-02-13T01:10:28;11.45;;;4.20;;
72951;SDS011;61102;51.956;5.878;2023-02-13T01:12:54;13.20;;;4.80;;
72951;SDS011;61102;51.956;5.878;2023-02-13T01:15:20;12.23;;;3.97;;
72951;SDS011;61102;51.956;5.878;2023-02-13T01:17:47;12.30;;;4.90;;
72951;SDS011;61102;51.956;5.878;2023-02-13T01:20:13;11.18;;;3.83;;
72951;SDS011;61102;51.956;5.878;2023-02-13T01:22:40;12.15;;;4.05;;
72951;SDS011;61102;51.956;5.878;2023-02-13T01:25:09;9.38;;;3.38;;
72951;SDS011;61102;51.956;5.878;2023-02-13T01:27:35;10.82;;;3.60;;
72951;SDS011;61102;51.956;5.878;2023-02-13T01:30:04;14.98;;;5.57;;
72951;SDS011;61102;51.956;5.878;2023-02-13T01:32:35;11.15;;;4.20;;
72951;SDS011;61102;51.956;5.878;2023-02-13T01:35:01;11.40;;;4.15;;
72951;SDS011;61102;51.956;5.878;2023-02-13T01:37:27;10.63;;;3.17;;
72951;SDS011;61102;51.956;5.878;2023-02-13T01:39:54;11.70;;;3.95;;
72951;SDS011;61102;51.956;5.878;2023-02-13T01:42:23;12.90;;;4.32;;
72951;SDS011;61102;51.956;5.878;2023-02-13T01:44:54;9.30;;;3.20;;
72951;SDS011;61102;51.956;5.878;2023-02-13T01:47:35;11.32;;;3.83;;
72951;SDS011;61102;51.956;5.878;2023-02-13T01:50:07;9.52;;;3.70;;
72951;SDS011;61102;51.956;5.878;2023-02-13T01:52:37;10.77;;;3.72;;
72951;SDS011;61102;51.956;5.878;2023-02-13T01:55:05;10.52;;;3.83;;
72951;SDS011;61102;51.956;5.878;2023-02-13T01:57:34;11.15;;;3.72;;
72951;SDS011;61102;51.956;5.878;2023-02-13T02:00:11;11.23;;;3.63;;
72951;SDS011;61102;51.956;5.878;2023-02-13T02:02:56;12.43;;;4.68;;
72951;SDS011;61102;51.956;5.878;2023-02-13T02:05:31;9.55;;;3.70;;
72951;SDS011;61102;51.956;5.878;2023-02-13T02:07:59;10.35;;;3.65;;
72951;SDS011;61102;51.956;5.878;2023-02-13T02:10:28;13.90;;;4.20;;
72951;SDS011;61102;51.956;5.878;2023-02-13T02:15:33;12.93;;;4.72;;
72951;SDS011;61102;51.956;5.878;2023-02-13T02:18:00;12.75;;;4.90;;
72951;SDS011;61102;51.956;5.878;2023-02-13T02:34:43;15.35;;;6.15;;
72951;SDS011;61102;51.956;5.878;2023-02-13T02:37:17;15.18;;;5.57;;
72951;SDS011;61102;51.956;5.878;2023-02-13T02:43:08;15.18;;;4.82;;
72951;SDS011;61102;51.956;5.878;2023-02-13T02:48:28;12.77;;;4.85;;
72951;SDS011;61102;51.956;5.878;2023-02-13T02:54:23;12.02;;;4.30;;
72951;SDS011;61102;51.956;5.878;2023-02-13T02:57:14;12.57;;;4.80;;
72951;SDS011;61102;51.956;5.878;2023-02-13T02:59:53;16.25;;;5.82;;
72951;SDS011;61102;51.956;5.878;2023-02-13T03:02:48;17.02;;;6.22;;
72951;SDS011;61102;51.956;5.878;2023-02-13T03:05:32;16.13;;;6.65;;
72951;SDS011;61102;51.956;5.878;2023-02-13T03:08:27;11.15;;;3.92;;
72951;SDS011;61102;51.956;5.878;2023-02-13T03:11:12;14.52;;;5.65;;
72951;SDS011;61102;51.956;5.878;2023-02-13T03:14:06;14.10;;;5.15;;
72951;SDS011;61102;51.956;5.878;2023-02-13T03:16:36;13.60;;;5.03;;
72951;SDS011;61102;51.956;5.878;2023-02-13T03:22:39;10.02;;;3.63;;
72951;SDS011;61102;51.956;5.878;2023-02-13T03:31:59;12.30;;;4.13;;
72951;SDS011;61102;51.956;5.878;2023-02-13T03:35:30;13.30;;;4.13;;
72951;SDS011;61102;51.956;5.878;2023-02-13T03:47:42;11.13;;;3.78;;
72951;SDS011;61102;51.956;5.878;2023-02-13T03:50:12;11.25;;;3.90;;
72951;SDS011;61102;51.956;5.878;2023-02-13T03:52:50;10.80;;;3.85;;
72951;SDS011;61102;51.956;5.878;2023-02-13T03:55:37;15.95;;;6.32;;
72951;SDS011;61102;51.956;5.878;2023-02-13T03:58:27;10.40;;;3.83;;
72951;SDS011;61102;51.956;5.878;2023-02-13T04:01:15;9.75;;;3.67;;
72951;SDS011;61102;51.956;5.878;2023-02-13T04:03:51;9.73;;;3.67;;
72951;SDS011;61102;51.956;5.878;2023-02-13T04:06:24;10.88;;;3.88;;
72951;SDS011;61102;51.956;5.878;2023-02-13T04:08:54;10.85;;;3.75;;
72951;SDS011;61102;51.956;5.878;2023-02-13T04:11:24;12.18;;;4.57;;
72951;SDS011;61102;51.956;5.878;2023-02-13T04:16:39;11.98;;;4.03;;
72951;SDS011;61102;51.956;5.878;2023-02-13T04:19:11;10.63;;;3.75;;
72951;SDS011;61102;51.956;5.878;2023-02-13T04:21:38;10.93;;;4.28;;
72951;SDS011;61102;51.956;5.878;2023-02-13T04:24:05;13.05;;;4.35;;
72951;SDS011;61102;51.956;5.878;2023-02-13T04:26:34;11.52;;;4.00;;
72951;SDS011;61102;51.956;5.878;2023-02-13T04:29:02;10.77;;;3.85;;
72951;SDS011;61102;51.956;5.878;2023-02-13T04:31:29;14.18;;;5.38;;
72951;SDS011;61102;51.956;5.878;2023-02-13T04:33:55;12.98;;;4.50;;
72951;SDS011;61102;51.956;5.878;2023-02-13T04:36:21;10.73;;;3.90;;
72951;SDS011;61102;51.956;5.878;2023-02-13T04:38:47;14.10;;;4.80;;
72951;SDS011;61102;51.956;5.878;2023-02-13T04:41:14;10.85;;;3.95;;
72951;SDS011;61102;51.956;5.878;2023-02-13T04:43:40;10.48;;;4.00;;
72951;SDS011;61102;51.956;5.878;2023-02-13T04:46:07;8.82;;;3.35;;
72951;SDS011;61102;51.956;5.878;2023-02-13T04:48:33;10.30;;;3.78;;
72951;SDS011;61102;51.956;5.878;2023-02-13T04:50:59;10.27;;;3.80;;
72951;SDS011;61102;51.956;5.878;2023-02-13T04:53:25;11.40;;;4.05;;
72951;SDS011;61102;51.956;5.878;2023-02-13T04:55:52;11.82;;;4.22;;
72951;SDS011;61102;51.956;5.878;2023-02-13T04:58:18;10.00;;;3.25;;
72951;SDS011;61102;51.956;5.878;2023-02-13T05:00:47;10.63;;;3.90;;
72951;SDS011;61102;51.956;5.878;2023-02-13T05:03:13;9.57;;;3.25;;
72951;SDS011;61102;51.956;5.878;2023-02-13T05:05:39;11.45;;;3.92;;
72951;SDS011;61102;51.956;5.878;2023-02-13T05:08:06;9.70;;;3.28;;
72951;SDS011;61102;51.956;5.878;2023-02-13T05:12:59;10.60;;;3.60;;
72951;SDS011;61102;51.956;5.878;2023-02-13T05:15:26;11.10;;;4.00;;
72951;SDS011;61102;51.956;5.878;2023-02-13T05:17:52;11.57;;;3.75;;
72951;SDS011;61102;51.956;5.878;2023-02-13T05:20:18;13.10;;;4.28;;
72951;SDS011;61102;51.956;5.878;2023-02-13T05:22:45;10.77;;;3.78;;
72951;SDS011;61102;51.956;5.878;2023-02-13T05:25:38;13.25;;;5.22;;
72951;SDS011;61102;51.956;5.878;2023-02-13T05:28:05;12.90;;;4.80;;
72951;SDS011;61102;51.956;5.878;2023-02-13T05:30:55;14.60;;;6.03;;
72951;SDS011;61102;51.956;5.878;2023-02-13T05:33:21;13.32;;;4.90;;
72951;SDS011;61102;51.956;5.878;2023-02-13T05:35:47;10.30;;;3.97;;
72951;SDS011;61102;51.956;5.878;2023-02-13T05:38:14;10.85;;;3.63;;
72951;SDS011;61102;51.956;5.878;2023-02-13T05:40:40;9.77;;;3.50;;
72951;SDS011;61102;51.956;5.878;2023-02-13T05:43:06;10.23;;;3.70;;
72951;SDS011;61102;51.956;5.878;2023-02-13T05:45:32;12.60;;;4.72;;
72951;SDS011;61102;51.956;5.878;2023-02-13T05:47:58;11.10;;;4.05;;
72951;SDS011;61102;51.956;5.878;2023-02-13T05:50:26;9.95;;;3.92;;
72951;SDS011;61102;51.956;5.878;2023-02-13T05:52:54;10.32;;;4.05;;
72951;SDS011;61102;51.956;5.878;2023-02-13T05:55:20;9.95;;;3.55;;
72951;SDS011;61102;51.956;5.878;2023-02-13T05:57:46;10.88;;;4.05;;
72951;SDS011;61102;51.956;5.878;2023-02-13T06:00:13;10.18;;;3.78;;
72951;SDS011;61102;51.956;5.878;2023-02-13T06:02:40;11.23;;;4.00;;
72951;SDS011;61102;51.956;5.878;2023-02-13T06:05:06;10.15;;;3.53;;
72951;SDS011;61102;51.956;5.878;2023-02-13T06:07:33;9.45;;;3.67;;
72951;SDS011;61102;51.956;5.878;2023-02-13T06:09:59;10.60;;;4.22;;
72951;SDS011;61102;51.956;5.878;2023-02-13T06:12:25;11.00;;;4.32;;
72951;SDS011;61102;51.956;5.878;2023-02-13T06:14:51;10.80;;;3.95;;
72951;SDS011;61102;51.956;5.878;2023-02-13T06:17:18;12.80;;;4.65;;
72951;SDS011;61102;51.956;5.878;2023-02-13T06:19:44;11.43;;;4.15;;
72951;SDS011;61102;51.956;5.878;2023-02-13T06:22:10;12.70;;;5.35;;
72951;SDS011;61102;51.956;5.878;2023-02-13T06:24:36;10.75;;;4.25;;
72951;SDS011;61102;51.956;5.878;2023-02-13T06:27:02;11.60;;;4.07;;
72951;SDS011;61102;51.956;5.878;2023-02-13T06:29:29;12.23;;;4.60;;
72951;SDS011;61102;51.956;5.878;2023-02-13T06:31:58;11.95;;;4.25;;
72951;SDS011;61102;51.956;5.878;2023-02-13T06:34:24;17.75;;;7.43;;
72951;SDS011;61102;51.956;5.878;2023-02-13T06:36:50;11.45;;;4.88;;
72951;SDS011;61102;51.956;5.878;2023-02-13T06:39:17;12.45;;;4.80;;
72951;SDS011;61102;51.956;5.878;2023-02-13T06:41:43;14.50;;;5.10;;
72951;SDS011;61102;51.956;5.878;2023-02-13T06:44:10;12.45;;;4.82;;
72951;SDS011;61102;51.956;5.878;2023-02-13T06:46:36;11.93;;;4.50;;
72951;SDS011;61102;51.956;5.878;2023-02-13T06:49:02;11.00;;;4.25;;
72951;SDS011;61102;51.956;5.878;2023-02-13T06:51:28;9.85;;;3.78;;
72951;SDS011;61102;51.956;5.878;2023-02-13T06:53:54;10.50;;;4.07;;
72951;SDS011;61102;51.956;5.878;2023-02-13T06:56:21;11.65;;;4.22;;
72951;SDS011;61102;51.956;5.878;2023-02-13T06:58:47;11.35;;;4.20;;
72951;SDS011;61102;51.956;5.878;2023-02-13T07:01:13;14.35;;;5.78;;
72951;SDS011;61102;51.956;5.878;2023-02-13T07:03:39;11.68;;;4.78;;
72951;SDS011;61102;51.956;5.878;2023-02-13T07:06:06;13.93;;;5.25;;
72951;SDS011;61102;51.956;5.878;2023-02-13T07:08:32;13.23;;;4.80;;
72951;SDS011;61102;51.956;5.878;2023-02-13T07:10:58;12.70;;;4.50;;
72951;SDS011;61102;51.956;5.878;2023-02-13T07:13:25;11.65;;;4.50;;
72951;SDS011;61102;51.956;5.878;2023-02-13T07:15:51;16.48;;;6.28;;
72951;SDS011;61102;51.956;5.878;2023-02-13T07:18:17;17.63;;;7.22;;
72951;SDS011;61102;51.956;5.878;2023-02-13T07:20:43;14.05;;;6.13;;
72951;SDS011;61102;51.956;5.878;2023-02-13T07:23:10;12.73;;;5.10;;
72951;SDS011;61102;51.956;5.878;2023-02-13T07:25:36;12.20;;;4.85;;
72951;SDS011;61102;51.956;5.878;2023-02-13T07:28:03;15.25;;;6.00;;
72951;SDS011;61102;51.956;5.878;2023-02-13T07:30:33;11.93;;;4.43;;
72951;SDS011;61102;51.956;5.878;2023-02-13T07:33:03;12.60;;;5.10;;
72951;SDS011;61102;51.956;5.878;2023-02-13T07:35:30;10.35;;;4.30;;
72951;SDS011;61102;51.956;5.878;2023-02-13T07:37:56;10.05;;;3.72;;
72951;SDS011;61102;51.956;5.878;2023-02-13T07:40:24;11.98;;;5.13;;
72951;SDS011;61102;51.956;5.878;2023-02-13T07:42:50;12.93;;;5.13;;
72951;SDS011;61102;51.956;5.878;2023-02-13T07:45:16;12.40;;;4.97;;
72951;SDS011;61102;51.956;5.878;2023-02-13T07:47:42;12.13;;;5.00;;
72951;SDS011;61102;51.956;5.878;2023-02-13T07:50:09;11.80;;;4.95;;
72951;SDS011;61102;51.956;5.878;2023-02-13T07:52:36;12.85;;;5.80;;
72951;SDS011;61102;51.956;5.878;2023-02-13T07:55:03;10.98;;;4.22;;
72951;SDS011;61102;51.956;5.878;2023-02-13T07:57:30;15.75;;;6.32;;
72951;SDS011;61102;51.956;5.878;2023-02-13T07:59:56;14.13;;;5.30;;
72951;SDS011;61102;51.956;5.878;2023-02-13T08:02:23;15.13;;;6.65;;
72951;SDS011;61102;51.956;5.878;2023-02-13T08:04:49;14.60;;;6.53;;
72951;SDS011;61102;51.956;5.878;2023-02-13T08:07:15;14.82;;;6.82;;
72951;SDS011;61102;51.956;5.878;2023-02-13T08:09:43;19.00;;;7.90;;
72951;SDS011;61102;51.956;5.878;2023-02-13T08:12:29;13.00;;;5.30;;
72951;SDS011;61102;51.956;5.878;2023-02-13T08:14:57;15.75;;;6.38;;
72951;SDS011;61102;51.956;5.878;2023-02-13T08:17:23;15.05;;;6.43;;
72951;SDS011;61102;51.956;5.878;2023-02-13T08:19:49;11.18;;;4.95;;
72951;SDS011;61102;51.956;5.878;2023-02-13T08:22:15;13.35;;;6.22;;
72951;SDS011;61102;51.956;5.878;2023-02-13T08:24:42;14.35;;;6.10;;
72951;SDS011;61102;51.956;5.878;2023-02-13T08:27:10;14.88;;;6.30;;
72951;SDS011;61102;51.956;5.878;2023-02-13T08:29:38;13.48;;;6.00;;
72951;SDS011;61102;51.956;5.878;2023-02-13T08:32:04;12.65;;;5.70;;
72951;SDS011;61102;51.956;5.878;2023-02-13T08:34:30;17.30;;;7.18;;
72951;SDS011;61102;51.956;5.878;2023-02-13T08:36:56;14.15;;;6.18;;
72951;SDS011;61102;51.956;5.878;2023-02-13T08:39:23;16.23;;;7.72;;
72951;SDS011;61102;51.956;5.878;2023-02-13T08:41:49;14.38;;;6.10;;
72951;SDS011;61102;51.956;5.878;2023-02-13T08:44:15;12.95;;;5.30;;
72951;SDS011;61102;51.956;5.878;2023-02-13T08:46:41;19.73;;;8.05;;
72951;SDS011;61102;51.956;5.878;2023-02-13T08:49:07;14.45;;;5.95;;
72951;SDS011;61102;51.956;5.878;2023-02-13T08:51:34;15.40;;;7.47;;
72951;SDS011;61102;51.956;5.878;2023-02-13T08:54:00;18.42;;;9.55;;
72951;SDS011;61102;51.956;5.878;2023-02-13T08:56:26;17.45;;;7.78;;
72951;SDS011;61102;51.956;5.878;2023-02-13T08:58:52;14.80;;;6.38;;
72951;SDS011;61102;51.956;5.878;2023-02-13T09:01:20;15.25;;;6.93;;
72951;SDS011;61102;51.956;5.878;2023-02-13T09:03:48;16.67;;;6.90;;
72951;SDS011;61102;51.956;5.878;2023-02-13T09:06:15;18.55;;;8.23;;
72951;SDS011;61102;51.956;5.878;2023-02-13T09:08:41;14.82;;;6.95;;
72951;SDS011;61102;51.956;5.878;2023-02-13T09:11:07;13.82;;;6.22;;
72951;SDS011;61102;51.956;5.878;2023-02-13T09:13:34;17.42;;;7.97;;
72951;SDS011;61102;51.956;5.878;2023-02-13T09:16:02;15.52;;;7.07;;
72951;SDS011;61102;51.956;5.878;2023-02-13T09:18:30;15.43;;;6.97;;
72951;SDS011;61102;51.956;5.878;2023-02-13T09:21:00;17.98;;;8.50;;
72951;SDS011;61102;51.956;5.878;2023-02-13T09:23:35;15.68;;;6.80;;
72951;SDS011;61102;51.956;5.878;2023-02-13T09:26:03;16.70;;;6.32;;
72951;SDS011;61102;51.956;5.878;2023-02-13T09:28:31;17.25;;;7.57;;
72951;SDS011;61102;51.956;5.878;2023-02-13T09:30:59;14.70;;;6.57;;
72951;SDS011;61102;51.956;5.878;2023-02-13T09:33:30;16.95;;;7.28;;
72951;SDS011;61102;51.956;5.878;2023-02-13T09:35:56;13.50;;;6.60;;
72951;SDS011;61102;51.956;5.878;2023-02-13T09:38:22;15.52;;;6.80;;
72951;SDS011;61102;51.956;5.878;2023-02-13T09:40:52;19.17;;;8.23;;
72951;SDS011;61102;51.956;5.878;2023-02-13T09:43:43;12.40;;;5.22;;
72951;SDS011;61102;51.956;5.878;2023-02-13T09:46:27;14.50;;;6.15;;
72951;SDS011;61102;51.956;5.878;2023-02-13T09:48:58;13.60;;;5.90;;
72951;SDS011;61102;51.956;5.878;2023-02-13T09:51:44;15.45;;;6.35;;
72951;SDS011;61102;51.956;5.878;2023-02-13T09:54:15;13.20;;;6.30;;
72951;SDS011;61102;51.956;5.878;2023-02-13T10:01:59;17.50;;;7.32;;
72951;SDS011;61102;51.956;5.878;2023-02-13T10:04:35;15.02;;;7.20;;
72951;SDS011;61102;51.956;5.878;2023-02-13T10:07:27;14.27;;;6.18;;
72951;SDS011;61102;51.956;5.878;2023-02-13T10:12:55;12.68;;;5.97;;
72951;SDS011;61102;51.956;5.878;2023-02-13T10:15:36;13.95;;;5.93;;
72951;SDS011;61102;51.956;5.878;2023-02-13T10:18:18;18.13;;;8.30;;
72951;SDS011;61102;51.956;5.878;2023-02-13T10:20:51;12.95;;;6.13;;
72951;SDS011;61102;51.956;5.878;2023-02-13T10:23:56;17.63;;;7.65;;
72951;SDS011;61102;51.956;5.878;2023-02-13T10:28:59;14.02;;;6.05;;
72951;SDS011;61102;51.956;5.878;2023-02-13T10:31:49;14.68;;;6.07;;
72951;SDS011;61102;51.956;5.878;2023-02-13T10:34:21;16.08;;;7.43;;
72951;SDS011;61102;51.956;5.878;2023-02-13T10:36:49;12.85;;;5.72;;
72951;SDS011;61102;51.956;5.878;2023-02-13T10:44:46;14.57;;;6.38;;
72951;SDS011;61102;51.956;5.878;2023-02-13T10:53:17;13.38;;;5.90;;
72951;SDS011;61102;51.956;5.878;2023-02-13T10:58:46;10.63;;;4.25;;
72951;SDS011;61102;51.956;5.878;2023-02-13T11:01:34;12.18;;;5.50;;
72951;SDS011;61102;51.956;5.878;2023-02-13T11:04:07;12.85;;;5.80;;
72951;SDS011;61102;51.956;5.878;2023-02-13T11:06:37;16.08;;;7.45;;
72951;SDS011;61102;51.956;5.878;2023-02-13T11:09:07;15.93;;;6.65;;
72951;SDS011;61102;51.956;5.878;2023-02-13T11:11:38;15.63;;;7.93;;
72951;SDS011;61102;51.956;5.878;2023-02-13T11:14:11;10.77;;;5.05;;
72951;SDS011;61102;51.956;5.878;2023-02-13T11:16:50;16.00;;;7.45;;
72951;SDS011;61102;51.956;5.878;2023-02-13T11:19:29;14.23;;;6.38;;
72951;SDS011;61102;51.956;5.878;2023-02-13T11:22:24;11.82;;;5.25;;
72951;SDS011;61102;51.956;5.878;2023-02-13T11:24:55;14.05;;;6.03;;
72951;SDS011;61102;51.956;5.878;2023-02-13T11:27:41;13.65;;;6.15;;
72951;SDS011;61102;51.956;5.878;2023-02-13T11:33:00;12.00;;;5.13;;
72951;SDS011;61102;51.956;5.878;2023-02-13T11:35:31;11.63;;;5.53;;
72951;SDS011;61102;51.956;5.878;2023-02-13T11:38:21;11.38;;;5.22;;
72951;SDS011;61102;51.956;5.878;2023-02-13T11:41:30;12.30;;;5.07;;
72951;SDS011;61102;51.956;5.878;2023-02-13T11:43:48;12.32;;;5.10;;
72951;SDS011;61102;51.956;5.878;2023-02-13T11:48:55;11.90;;;5.28;;
72951;SDS011;61102;51.956;5.878;2023-02-13T11:54:18;12.90;;;5.60;;
72951;SDS011;61102;51.956;5.878;2023-02-13T11:57:02;12.18;;;5.03;;
72951;SDS011;61102;51.956;5.878;2023-02-13T11:59:49;10.57;;;4.03;;
72951;SDS011;61102;51.956;5.878;2023-02-13T12:02:21;12.70;;;5.93;;
72951;SDS011;61102;51.956;5.878;2023-02-13T12:04:50;12.73;;;5.68;;
72951;SDS011;61102;51.956;5.878;2023-02-13T12:07:19;9.82;;;4.07;;
72951;SDS011;61102;51.956;5.878;2023-02-13T12:15:16;10.32;;;4.60;;
72951;SDS011;61102;51.956;5.878;2023-02-13T12:17:45;13.18;;;4.68;;
72951;SDS011;61102;51.956;5.878;2023-02-13T12:20:18;12.00;;;5.78;;
72951;SDS011;61102;51.956;5.878;2023-02-13T12:31:20;8.30;;;3.40;;
72951;SDS011;61102;51.956;5.878;2023-02-13T12:36:48;11.45;;;5.10;;
72951;SDS011;61102;51.956;5.878;2023-02-13T12:40:13;9.43;;;4.00;;
72951;SDS011;61102;51.956;5.878;2023-02-13T12:45:50;11.65;;;4.57;;
72951;SDS011;61102;51.956;5.878;2023-02-13T12:51:26;9.90;;;4.28;;
72951;SDS011;61102;51.956;5.878;2023-02-13T12:59:49;8.07;;;2.97;;
72951;SDS011;61102;51.956;5.878;2023-02-13T13:10:34;14.52;;;5.78;;
72951;SDS011;61102;51.956;5.878;2023-02-13T13:15:56;10.63;;;4.60;;
72951;SDS011;61102;51.956;5.878;2023-02-13T13:23:54;11.07;;;4.30;;
72951;SDS011;61102;51.956;5.878;2023-02-13T13:29:26;11.05;;;4.65;;
72951;SDS011;61102;51.956;5.878;2023-02-13T13:32:20;9.98;;;3.83;;
72951;SDS011;61102;51.956;5.878;2023-02-13T13:34:47;11.50;;;4.68;;
72951;SDS011;61102;51.956;5.878;2023-02-13T13:50:52;8.23;;;3.25;;
72951;SDS011;61102;51.956;5.878;2023-02-13T13:53:20;10.05;;;4.07;;
72951;SDS011;61102;51.956;5.878;2023-02-13T13:58:30;12.15;;;4.68;;
72951;SDS011;61102;51.956;5.878;2023-02-13T14:01:14;9.50;;;3.85;;
72951;SDS011;61102;51.956;5.878;2023-02-13T14:03:47;9.20;;;3.78;;
72951;SDS011;61102;51.956;5.878;2023-02-13T14:06:19;8.77;;;3.88;;
72951;SDS011;61102;51.956;5.878;2023-02-13T14:08:57;9.23;;;3.45;;
72951;SDS011;61102;51.956;5.878;2023-02-13T14:11:37;8.52;;;3.45;;
72951;SDS011;61102;51.956;5.878;2023-02-13T14:16:55;11.68;;;4.75;;
72951;SDS011;61102;51.956;5.878;2023-02-13T14:19:25;8.57;;;3.40;;
72951;SDS011;61102;51.956;5.878;2023-02-13T14:21:53;11.93;;;4.97;;
72951;SDS011;61102;51.956;5.878;2023-02-13T14:24:40;10.80;;;4.93;;
72951;SDS011;61102;51.956;5.878;2023-02-13T14:27:14;9.35;;;3.95;;
72951;SDS011;61102;51.956;5.878;2023-02-13T14:29:53;9.32;;;4.13;;
72951;SDS011;61102;51.956;5.878;2023-02-13T14:35:02;9.13;;;3.45;;
72951;SDS011;61102;51.956;5.878;2023-02-13T14:37:53;8.60;;;2.90;;
72951;SDS011;61102;51.956;5.878;2023-02-13T14:40:28;9.80;;;3.55;;
72951;SDS011;61102;51.956;5.878;2023-02-13T14:45:52;8.85;;;3.78;;
72951;SDS011;61102;51.956;5.878;2023-02-13T14:48:38;11.88;;;5.28;;
72951;SDS011;61102;51.956;5.878;2023-02-13T14:51:12;10.25;;;3.92;;
72951;SDS011;61102;51.956;5.878;2023-02-13T14:56:43;11.70;;;4.95;;
72951;SDS011;61102;51.956;5.878;2023-02-13T14:59:13;9.93;;;3.75;;
72951;SDS011;61102;51.956;5.878;2023-02-13T15:01:46;12.30;;;4.60;;
72951;SDS011;61102;51.956;5.878;2023-02-13T15:04:29;10.05;;;3.45;;
72951;SDS011;61102;51.956;5.878;2023-02-13T15:07:00;8.63;;;2.97;;
72951;SDS011;61102;51.956;5.878;2023-02-13T15:09:31;9.32;;;3.92;;
72951;SDS011;61102;51.956;5.878;2023-02-13T15:12:03;8.93;;;3.58;;
72951;SDS011;61102;51.956;5.878;2023-02-13T15:14:49;9.70;;;3.28;;
72951;SDS011;61102;51.956;5.878;2023-02-13T15:17:20;9.55;;;4.45;;
72951;SDS011;61102;51.956;5.878;2023-02-13T15:19:50;10.40;;;3.53;;
72951;SDS011;61102;51.956;5.878;2023-02-13T15:22:44;8.25;;;3.30;;
72951;SDS011;61102;51.956;5.878;2023-02-13T15:25:22;8.50;;;2.72;;
72951;SDS011;61102;51.956;5.878;2023-02-13T15:27:56;10.52;;;3.35;;
72951;SDS011;61102;51.956;5.878;2023-02-13T15:30:28;8.32;;;3.13;;
72951;SDS011;61102;51.956;5.878;2023-02-13T15:32:55;9.48;;;3.30;;
72951;SDS011;61102;51.956;5.878;2023-02-13T15:35:28;8.10;;;3.30;;
72951;SDS011;61102;51.956;5.878;2023-02-13T15:37:55;8.95;;;3.40;;
72951;SDS011;61102;51.956;5.878;2023-02-13T15:40:29;9.10;;;3.50;;
72951;SDS011;61102;51.956;5.878;2023-02-13T15:42:59;9.90;;;4.10;;
72951;SDS011;61102;51.956;5.878;2023-02-13T15:45:26;11.48;;;3.90;;
72951;SDS011;61102;51.956;5.878;2023-02-13T15:47:54;9.65;;;3.15;;
72951;SDS011;61102;51.956;5.878;2023-02-13T15:50:27;7.57;;;2.42;;
72951;SDS011;61102;51.956;5.878;2023-02-13T15:52:54;7.30;;;3.00;;
72951;SDS011;61102;51.956;5.878;2023-02-13T15:55:22;7.40;;;2.75;;
72951;SDS011;61102;51.956;5.878;2023-02-13T15:57:53;11.38;;;3.70;;
72951;SDS011;61102;51.956;5.878;2023-02-13T16:00:32;7.85;;;2.75;;
72951;SDS011;61102;51.956;5.878;2023-02-13T16:03:00;8.10;;;3.22;;
72951;SDS011;61102;51.956;5.878;2023-02-13T16:05:29;8.23;;;2.97;;
72951;SDS011;61102;51.956;5.878;2023-02-13T16:08:35;8.65;;;3.20;;
72951;SDS011;61102;51.956;5.878;2023-02-13T16:13:57;10.20;;;4.00;;
72951;SDS011;61102;51.956;5.878;2023-02-13T16:17:04;7.70;;;2.95;;
72951;SDS011;61102;51.956;5.878;2023-02-13T16:24:53;8.32;;;2.83;;
72951;SDS011;61102;51.956;5.878;2023-02-13T16:27:28;7.47;;;2.72;;
72951;SDS011;61102;51.956;5.878;2023-02-13T16:29:55;8.05;;;2.53;;
72951;SDS011;61102;51.956;5.878;2023-02-13T16:32:28;8.68;;;3.20;;
72951;SDS011;61102;51.956;5.878;2023-02-13T16:37:52;7.32;;;2.65;;
72951;SDS011;61102;51.956;5.878;2023-02-13T16:56:40;10.23;;;4.63;;
72951;SDS011;61102;51.956;5.878;2023-02-13T16:59:32;9.05;;;4.03;;
72951;SDS011;61102;51.956;5.878;2023-02-13T17:02:13;9.68;;;3.92;;
72951;SDS011;61102;51.956;5.878;2023-02-13T17:04:48;9.02;;;3.55;;
72951;SDS011;61102;51.956;5.878;2023-02-13T17:07:18;8.57;;;3.33;;
72951;SDS011;61102;51.956;5.878;2023-02-13T17:09:53;10.43;;;4.70;;
72951;SDS011;61102;51.956;5.878;2023-02-13T17:12:24;8.45;;;3.63;;
72951;SDS011;61102;51.956;5.878;2023-02-13T17:14:52;9.68;;;3.80;;
72951;SDS011;61102;51.956;5.878;2023-02-13T17:17:19;11.15;;;5.05;;
72951;SDS011;61102;51.956;5.878;2023-02-13T17:19:47;9.88;;;4.50;;
72951;SDS011;61102;51.956;5.878;2023-02-13T17:22:30;8.95;;;3.58;;
72951;SDS011;61102;51.956;5.878;2023-02-13T17:25:03;10.68;;;4.43;;
72951;SDS011;61102;51.956;5.878;2023-02-13T17:27:32;9.73;;;4.28;;
72951;SDS011;61102;51.956;5.878;2023-02-13T17:29:58;10.95;;;4.78;;
72951;SDS011;61102;51.956;5.878;2023-02-13T17:32:25;9.77;;;3.97;;
72951;SDS011;61102;51.956;5.878;2023-02-13T17:34:53;10.77;;;4.60;;
72951;SDS011;61102;51.956;5.878;2023-02-13T17:37:20;11.55;;;5.05;;
72951;SDS011;61102;51.956;5.878;2023-02-13T17:39:49;8.48;;;3.60;;
72951;SDS011;61102;51.956;5.878;2023-02-13T17:42:17;11.05;;;5.10;;
72951;SDS011;61102;51.956;5.878;2023-02-13T17:44:45;10.45;;;4.50;;
72951;SDS011;61102;51.956;5.878;2023-02-13T17:47:12;11.18;;;5.43;;
72951;SDS011;61102;51.956;5.878;2023-02-13T17:49:38;11.45;;;5.25;;
72951;SDS011;61102;51.956;5.878;2023-02-13T17:52:04;10.05;;;4.35;;
72951;SDS011;61102;51.956;5.878;2023-02-13T17:54:31;10.15;;;4.15;;
72951;SDS011;61102;51.956;5.878;2023-02-13T17:57:00;10.45;;;4.07;;
72951;SDS011;61102;51.956;5.878;2023-02-13T17:59:27;10.82;;;5.05;;
72951;SDS011;61102;51.956;5.878;2023-02-13T18:01:53;13.38;;;5.28;;
72951;SDS011;61102;51.956;5.878;2023-02-13T18:04:20;11.93;;;5.93;;
72951;SDS011;61102;51.956;5.878;2023-02-13T18:06:49;12.48;;;5.47;;
72951;SDS011;61102;51.956;5.878;2023-02-13T18:09:17;11.18;;;4.82;;
72951;SDS011;61102;51.956;5.878;2023-02-13T18:11:48;12.60;;;5.82;;
72951;SDS011;61102;51.956;5.878;2023-02-13T18:14:15;12.32;;;5.40;;